sensor_id;sensor_type;location;lat;lon;timestamp;P1;durP1;ratioP1;P2;durP2;ratioP2
70388;SDS011;58659;49.050;8.530;2023-04-29T00:00:50;2.03;;;1.10;;
70388;SDS011;58659;49.050;8.530;2023-04-29T00:03:15;1.53;;;1.10;;
70388;SDS011;58659;49.050;8.530;2023-04-29T00:05:42;1.43;;;1.00;;
70388;SDS011;58659;49.050;8.530;2023-04-29T00:08:08;2.73;;;1.57;;
70388;SDS011;58659;49.050;8.530;2023-04-29T00:10:33;2.50;;;1.30;;
70388;SDS011;58659;49.050;8.530;2023-04-29T00:12:59;1.73;;;1.40;;
70388;SDS011;58659;49.050;8.530;2023-04-29T00:15:24;2.00;;;1.03;;
70388;SDS011;58659;49.050;8.530;2023-04-29T00:17:50;1.23;;;1.03;;
70388;SDS011;58659;49.050;8.530;2023-04-29T00:20:15;2.00;;;1.30;;
70388;SDS011;58659;49.050;8.530;2023-04-29T00:22:41;1.93;;;1.70;;
70388;SDS011;58659;49.050;8.530;2023-04-29T00:25:07;1.97;;;1.40;;
70388;SDS011;58659;49.050;8.530;2023-04-29T00:27:33;1.13;;;1.03;;
70388;SDS011;58659;49.050;8.530;2023-04-29T00:29:58;1.60;;;1.00;;
70388;SDS011;58659;49.050;8.530;2023-04-29T00:32:24;1.97;;;1.60;;
70388;SDS011;58659;49.050;8.530;2023-04-29T00:34:49;1.03;;;0.97;;
70388;SDS011;58659;49.050;8.530;2023-04-29T00:37:15;2.33;;;1.50;;
70388;SDS011;58659;49.050;8.530;2023-04-29T00:39:40;1.47;;;1.23;;
70388;SDS011;58659;49.050;8.530;2023-04-29T00:42:06;2.13;;;1.30;;
70388;SDS011;58659;49.050;8.530;2023-04-29T00:44:32;1.50;;;1.10;;
70388;SDS011;58659;49.050;8.530;2023-04-29T00:46:57;1.40;;;1.27;;
70388;SDS011;58659;49.050;8.530;2023-04-29T00:49:23;2.83;;;1.20;;
70388;SDS011;58659;49.050;8.530;2023-04-29T00:51:48;1.93;;;1.20;;
70388;SDS011;58659;49.050;8.530;2023-04-29T00:54:14;6.60;;;2.00;;
70388;SDS011;58659;49.050;8.530;2023-04-29T00:56:40;6.73;;;1.90;;
70388;SDS011;58659;49.050;8.530;2023-04-29T00:59:09;2.37;;;1.50;;
70388;SDS011;58659;49.050;8.530;2023-04-29T01:01:36;2.33;;;1.60;;
70388;SDS011;58659;49.050;8.530;2023-04-29T01:04:03;3.43;;;2.10;;
70388;SDS011;58659;49.050;8.530;2023-04-29T01:17:38;1.63;;;1.40;;
70388;SDS011;58659;49.050;8.530;2023-04-29T01:20:08;1.97;;;1.30;;
70388;SDS011;58659;49.050;8.530;2023-04-29T01:22:34;2.70;;;1.37;;
70388;SDS011;58659;49.050;8.530;2023-04-29T01:25:00;1.93;;;1.50;;
70388;SDS011;58659;49.050;8.530;2023-04-29T01:27:30;2.37;;;1.27;;
70388;SDS011;58659;49.050;8.530;2023-04-29T01:30:03;3.67;;;2.33;;
70388;SDS011;58659;49.050;8.530;2023-04-29T01:32:36;2.87;;;2.07;;
70388;SDS011;58659;49.050;8.530;2023-04-29T01:35:25;3.67;;;1.60;;
70388;SDS011;58659;49.050;8.530;2023-04-29T01:44:01;2.57;;;1.33;;
70388;SDS011;58659;49.050;8.530;2023-04-29T01:46:28;2.17;;;1.70;;
70388;SDS011;58659;49.050;8.530;2023-04-29T01:48:56;2.90;;;1.63;;
70388;SDS011;58659;49.050;8.530;2023-04-29T01:51:22;1.80;;;1.50;;
70388;SDS011;58659;49.050;8.530;2023-04-29T01:53:47;4.73;;;1.43;;
70388;SDS011;58659;49.050;8.530;2023-04-29T01:56:13;4.10;;;1.90;;
70388;SDS011;58659;49.050;8.530;2023-04-29T01:58:38;1.97;;;1.50;;
70388;SDS011;58659;49.050;8.530;2023-04-29T02:01:03;2.17;;;1.37;;
70388;SDS011;58659;49.050;8.530;2023-04-29T02:03:30;1.30;;;1.17;;
70388;SDS011;58659;49.050;8.530;2023-04-29T02:05:55;1.73;;;1.60;;
70388;SDS011;58659;49.050;8.530;2023-04-29T02:08:21;2.93;;;2.00;;
70388;SDS011;58659;49.050;8.530;2023-04-29T02:10:53;3.20;;;1.67;;
70388;SDS011;58659;49.050;8.530;2023-04-29T02:13:19;2.07;;;1.70;;
70388;SDS011;58659;49.050;8.530;2023-04-29T02:15:44;2.90;;;2.20;;
70388;SDS011;58659;49.050;8.530;2023-04-29T02:18:10;2.93;;;2.03;;
70388;SDS011;58659;49.050;8.530;2023-04-29T02:20:35;1.83;;;1.33;;
70388;SDS011;58659;49.050;8.530;2023-04-29T02:23:00;1.73;;;1.47;;
70388;SDS011;58659;49.050;8.530;2023-04-29T02:25:26;3.70;;;1.50;;
70388;SDS011;58659;49.050;8.530;2023-04-29T02:27:51;2.57;;;1.70;;
70388;SDS011;58659;49.050;8.530;2023-04-29T02:30:17;2.07;;;1.43;;
70388;SDS011;58659;49.050;8.530;2023-04-29T02:32:42;2.50;;;1.83;;
70388;SDS011;58659;49.050;8.530;2023-04-29T02:35:07;5.63;;;1.87;;
70388;SDS011;58659;49.050;8.530;2023-04-29T02:37:33;2.33;;;1.57;;
70388;SDS011;58659;49.050;8.530;2023-04-29T02:39:58;3.80;;;2.17;;
70388;SDS011;58659;49.050;8.530;2023-04-29T02:42:24;3.43;;;2.10;;
70388;SDS011;58659;49.050;8.530;2023-04-29T02:44:49;3.43;;;2.13;;
70388;SDS011;58659;49.050;8.530;2023-04-29T02:47:14;4.20;;;2.10;;
70388;SDS011;58659;49.050;8.530;2023-04-29T02:49:40;3.23;;;1.70;;
70388;SDS011;58659;49.050;8.530;2023-04-29T02:52:05;3.87;;;1.87;;
70388;SDS011;58659;49.050;8.530;2023-04-29T02:54:33;3.80;;;2.40;;
70388;SDS011;58659;49.050;8.530;2023-04-29T02:56:59;2.77;;;1.90;;
70388;SDS011;58659;49.050;8.530;2023-04-29T02:59:27;3.03;;;1.60;;
70388;SDS011;58659;49.050;8.530;2023-04-29T03:01:52;2.67;;;1.63;;
70388;SDS011;58659;49.050;8.530;2023-04-29T03:04:18;4.60;;;1.60;;
70388;SDS011;58659;49.050;8.530;2023-04-29T03:06:44;4.57;;;1.93;;
70388;SDS011;58659;49.050;8.530;2023-04-29T03:09:09;3.23;;;2.00;;
70388;SDS011;58659;49.050;8.530;2023-04-29T03:11:36;4.50;;;2.07;;
70388;SDS011;58659;49.050;8.530;2023-04-29T03:14:02;3.20;;;1.90;;
70388;SDS011;58659;49.050;8.530;2023-04-29T03:16:28;3.50;;;1.97;;
70388;SDS011;58659;49.050;8.530;2023-04-29T03:18:53;3.07;;;2.37;;
70388;SDS011;58659;49.050;8.530;2023-04-29T03:21:19;3.37;;;1.73;;
70388;SDS011;58659;49.050;8.530;2023-04-29T03:23:44;2.07;;;1.47;;
70388;SDS011;58659;49.050;8.530;2023-04-29T03:26:10;1.77;;;1.13;;
70388;SDS011;58659;49.050;8.530;2023-04-29T03:28:35;2.00;;;1.47;;
70388;SDS011;58659;49.050;8.530;2023-04-29T03:31:01;2.80;;;1.73;;
70388;SDS011;58659;49.050;8.530;2023-04-29T03:33:27;4.20;;;1.97;;
70388;SDS011;58659;49.050;8.530;2023-04-29T03:35:52;1.90;;;1.40;;
70388;SDS011;58659;49.050;8.530;2023-04-29T03:38:20;2.77;;;1.63;;
70388;SDS011;58659;49.050;8.530;2023-04-29T03:40:46;2.30;;;1.80;;
70388;SDS011;58659;49.050;8.530;2023-04-29T03:43:11;3.80;;;2.33;;
70388;SDS011;58659;49.050;8.530;2023-04-29T03:45:38;5.17;;;2.00;;
70388;SDS011;58659;49.050;8.530;2023-04-29T03:48:03;2.33;;;1.90;;
70388;SDS011;58659;49.050;8.530;2023-04-29T03:50:29;1.70;;;1.20;;
70388;SDS011;58659;49.050;8.530;2023-04-29T03:52:54;2.97;;;1.93;;
70388;SDS011;58659;49.050;8.530;2023-04-29T03:55:20;2.30;;;1.30;;
70388;SDS011;58659;49.050;8.530;2023-04-29T03:57:45;2.53;;;1.50;;
70388;SDS011;58659;49.050;8.530;2023-04-29T04:00:10;2.20;;;1.70;;
70388;SDS011;58659;49.050;8.530;2023-04-29T04:02:36;3.67;;;2.00;;
70388;SDS011;58659;49.050;8.530;2023-04-29T04:05:01;2.03;;;1.43;;
70388;SDS011;58659;49.050;8.530;2023-04-29T04:07:27;2.97;;;1.80;;
70388;SDS011;58659;49.050;8.530;2023-04-29T04:09:52;3.67;;;1.47;;
70388;SDS011;58659;49.050;8.530;2023-04-29T04:12:17;2.20;;;1.40;;
70388;SDS011;58659;49.050;8.530;2023-04-29T04:14:42;4.00;;;1.37;;
70388;SDS011;58659;49.050;8.530;2023-04-29T04:17:08;3.67;;;1.50;;
70388;SDS011;58659;49.050;8.530;2023-04-29T04:19:33;2.50;;;1.77;;
70388;SDS011;58659;49.050;8.530;2023-04-29T04:21:59;2.70;;;1.77;;
70388;SDS011;58659;49.050;8.530;2023-04-29T04:24:24;2.50;;;1.70;;
70388;SDS011;58659;49.050;8.530;2023-04-29T04:26:49;2.37;;;1.53;;
70388;SDS011;58659;49.050;8.530;2023-04-29T04:29:14;1.93;;;1.47;;
70388;SDS011;58659;49.050;8.530;2023-04-29T04:31:40;2.60;;;1.30;;
70388;SDS011;58659;49.050;8.530;2023-04-29T04:34:05;2.27;;;1.43;;
70388;SDS011;58659;49.050;8.530;2023-04-29T04:36:30;2.53;;;1.57;;
70388;SDS011;58659;49.050;8.530;2023-04-29T04:38:56;2.00;;;1.50;;
70388;SDS011;58659;49.050;8.530;2023-04-29T04:41:22;2.57;;;1.60;;
70388;SDS011;58659;49.050;8.530;2023-04-29T04:43:47;2.07;;;1.23;;
70388;SDS011;58659;49.050;8.530;2023-04-29T04:46:13;1.77;;;1.50;;
70388;SDS011;58659;49.050;8.530;2023-04-29T04:48:39;2.90;;;1.47;;
70388;SDS011;58659;49.050;8.530;2023-04-29T04:51:12;2.23;;;1.53;;
70388;SDS011;58659;49.050;8.530;2023-04-29T04:53:38;2.87;;;1.70;;
70388;SDS011;58659;49.050;8.530;2023-04-29T04:56:04;2.00;;;1.33;;
70388;SDS011;58659;49.050;8.530;2023-04-29T04:58:30;3.37;;;1.77;;
70388;SDS011;58659;49.050;8.530;2023-04-29T05:00:57;2.70;;;1.50;;
70388;SDS011;58659;49.050;8.530;2023-04-29T05:03:22;4.93;;;1.60;;
70388;SDS011;58659;49.050;8.530;2023-04-29T05:05:54;3.60;;;1.70;;
70388;SDS011;58659;49.050;8.530;2023-04-29T05:08:23;2.20;;;1.77;;
70388;SDS011;58659;49.050;8.530;2023-04-29T05:10:49;2.27;;;1.50;;
70388;SDS011;58659;49.050;8.530;2023-04-29T05:13:15;2.00;;;1.40;;
70388;SDS011;58659;49.050;8.530;2023-04-29T05:15:41;3.23;;;1.80;;
70388;SDS011;58659;49.050;8.530;2023-04-29T05:18:07;4.47;;;1.80;;
70388;SDS011;58659;49.050;8.530;2023-04-29T05:20:32;2.37;;;1.70;;
70388;SDS011;58659;49.050;8.530;2023-04-29T05:22:57;2.67;;;1.90;;
70388;SDS011;58659;49.050;8.530;2023-04-29T05:25:23;2.77;;;1.70;;
70388;SDS011;58659;49.050;8.530;2023-04-29T05:27:48;2.80;;;1.40;;
70388;SDS011;58659;49.050;8.530;2023-04-29T05:30:13;3.87;;;1.90;;
70388;SDS011;58659;49.050;8.530;2023-04-29T05:32:39;2.00;;;1.63;;
70388;SDS011;58659;49.050;8.530;2023-04-29T05:35:05;3.13;;;2.03;;
70388;SDS011;58659;49.050;8.530;2023-04-29T05:37:31;3.47;;;1.60;;
70388;SDS011;58659;49.050;8.530;2023-04-29T05:39:57;3.27;;;1.50;;
70388;SDS011;58659;49.050;8.530;2023-04-29T05:42:23;1.60;;;1.43;;
70388;SDS011;58659;49.050;8.530;2023-04-29T05:44:49;1.80;;;1.57;;
70388;SDS011;58659;49.050;8.530;2023-04-29T05:47:15;2.27;;;1.73;;
70388;SDS011;58659;49.050;8.530;2023-04-29T05:49:40;1.40;;;1.00;;
70388;SDS011;58659;49.050;8.530;2023-04-29T05:52:05;2.10;;;1.90;;
70388;SDS011;58659;49.050;8.530;2023-04-29T05:54:31;3.30;;;1.30;;
70388;SDS011;58659;49.050;8.530;2023-04-29T05:56:58;1.73;;;1.40;;
70388;SDS011;58659;49.050;8.530;2023-04-29T05:59:26;1.90;;;1.57;;
70388;SDS011;58659;49.050;8.530;2023-04-29T06:02:00;2.13;;;1.30;;
70388;SDS011;58659;49.050;8.530;2023-04-29T06:04:25;1.97;;;1.73;;
70388;SDS011;58659;49.050;8.530;2023-04-29T06:06:52;1.93;;;1.60;;
70388;SDS011;58659;49.050;8.530;2023-04-29T06:09:19;2.17;;;1.20;;
70388;SDS011;58659;49.050;8.530;2023-04-29T06:11:45;2.30;;;1.40;;
70388;SDS011;58659;49.050;8.530;2023-04-29T06:14:10;1.57;;;1.17;;
70388;SDS011;58659;49.050;8.530;2023-04-29T06:16:36;1.53;;;1.43;;
70388;SDS011;58659;49.050;8.530;2023-04-29T06:19:01;2.93;;;1.23;;
70388;SDS011;58659;49.050;8.530;2023-04-29T06:21:27;1.90;;;1.60;;
70388;SDS011;58659;49.050;8.530;2023-04-29T06:23:52;3.70;;;1.30;;
70388;SDS011;58659;49.050;8.530;2023-04-29T06:26:18;2.20;;;1.30;;
70388;SDS011;58659;49.050;8.530;2023-04-29T06:28:44;1.90;;;1.20;;
70388;SDS011;58659;49.050;8.530;2023-04-29T06:31:10;2.60;;;1.30;;
70388;SDS011;58659;49.050;8.530;2023-04-29T06:33:36;3.13;;;1.27;;
70388;SDS011;58659;49.050;8.530;2023-04-29T06:36:01;3.50;;;1.63;;
70388;SDS011;58659;49.050;8.530;2023-04-29T06:38:26;1.30;;;0.87;;
70388;SDS011;58659;49.050;8.530;2023-04-29T06:40:52;1.83;;;1.30;;
70388;SDS011;58659;49.050;8.530;2023-04-29T06:43:17;2.00;;;1.07;;
70388;SDS011;58659;49.050;8.530;2023-04-29T06:45:44;3.13;;;1.60;;
70388;SDS011;58659;49.050;8.530;2023-04-29T06:48:10;1.93;;;1.20;;
70388;SDS011;58659;49.050;8.530;2023-04-29T06:50:36;1.60;;;1.20;;
70388;SDS011;58659;49.050;8.530;2023-04-29T06:53:01;2.27;;;0.97;;
70388;SDS011;58659;49.050;8.530;2023-04-29T06:55:27;2.60;;;1.00;;
70388;SDS011;58659;49.050;8.530;2023-04-29T06:57:55;3.23;;;1.93;;
70388;SDS011;58659;49.050;8.530;2023-04-29T07:00:21;3.23;;;1.57;;
70388;SDS011;58659;49.050;8.530;2023-04-29T07:02:46;2.80;;;1.30;;
70388;SDS011;58659;49.050;8.530;2023-04-29T07:05:12;3.20;;;1.47;;
70388;SDS011;58659;49.050;8.530;2023-04-29T07:07:37;2.80;;;1.20;;
70388;SDS011;58659;49.050;8.530;2023-04-29T07:10:03;1.80;;;1.33;;
70388;SDS011;58659;49.050;8.530;2023-04-29T07:12:28;1.30;;;1.17;;
70388;SDS011;58659;49.050;8.530;2023-04-29T07:14:53;2.03;;;1.17;;
70388;SDS011;58659;49.050;8.530;2023-04-29T07:17:19;2.13;;;1.00;;
70388;SDS011;58659;49.050;8.530;2023-04-29T07:19:44;1.37;;;1.10;;
70388;SDS011;58659;49.050;8.530;2023-04-29T07:22:10;1.97;;;1.23;;
70388;SDS011;58659;49.050;8.530;2023-04-29T07:24:36;1.40;;;0.90;;
70388;SDS011;58659;49.050;8.530;2023-04-29T07:27:01;2.53;;;1.20;;
70388;SDS011;58659;49.050;8.530;2023-04-29T07:29:27;1.70;;;0.93;;
70388;SDS011;58659;49.050;8.530;2023-04-29T07:31:52;1.60;;;1.50;;
70388;SDS011;58659;49.050;8.530;2023-04-29T07:34:17;1.00;;;0.90;;
70388;SDS011;58659;49.050;8.530;2023-04-29T07:36:43;1.60;;;1.07;;
70388;SDS011;58659;49.050;8.530;2023-04-29T07:39:08;3.17;;;1.37;;
70388;SDS011;58659;49.050;8.530;2023-04-29T07:41:36;1.17;;;1.07;;
70388;SDS011;58659;49.050;8.530;2023-04-29T07:44:01;1.40;;;1.13;;
70388;SDS011;58659;49.050;8.530;2023-04-29T07:46:27;2.20;;;1.40;;
70388;SDS011;58659;49.050;8.530;2023-04-29T07:48:52;2.07;;;1.27;;
70388;SDS011;58659;49.050;8.530;2023-04-29T07:51:18;1.20;;;1.00;;
70388;SDS011;58659;49.050;8.530;2023-04-29T07:53:43;3.23;;;1.13;;
70388;SDS011;58659;49.050;8.530;2023-04-29T07:56:08;1.47;;;1.07;;
70388;SDS011;58659;49.050;8.530;2023-04-29T07:58:34;4.97;;;0.87;;
70388;SDS011;58659;49.050;8.530;2023-04-29T08:01:06;1.17;;;0.97;;
70388;SDS011;58659;49.050;8.530;2023-04-29T08:03:32;1.13;;;0.93;;
70388;SDS011;58659;49.050;8.530;2023-04-29T08:06:01;1.47;;;0.97;;
70388;SDS011;58659;49.050;8.530;2023-04-29T08:08:30;2.87;;;0.83;;
70388;SDS011;58659;49.050;8.530;2023-04-29T08:10:56;2.67;;;1.40;;
70388;SDS011;58659;49.050;8.530;2023-04-29T08:13:21;4.60;;;1.30;;
70388;SDS011;58659;49.050;8.530;2023-04-29T08:15:47;1.63;;;1.00;;
70388;SDS011;58659;49.050;8.530;2023-04-29T08:18:12;3.00;;;1.40;;
70388;SDS011;58659;49.050;8.530;2023-04-29T08:20:37;1.57;;;1.27;;
70388;SDS011;58659;49.050;8.530;2023-04-29T08:23:03;1.10;;;0.80;;
70388;SDS011;58659;49.050;8.530;2023-04-29T08:25:28;1.30;;;1.10;;
70388;SDS011;58659;49.050;8.530;2023-04-29T08:27:54;1.07;;;0.97;;
70388;SDS011;58659;49.050;8.530;2023-04-29T08:30:20;0.70;;;0.70;;
70388;SDS011;58659;49.050;8.530;2023-04-29T08:32:45;0.97;;;0.80;;
70388;SDS011;58659;49.050;8.530;2023-04-29T08:35:11;1.00;;;1.00;;
70388;SDS011;58659;49.050;8.530;2023-04-29T08:37:38;1.27;;;0.90;;
70388;SDS011;58659;49.050;8.530;2023-04-29T08:40:03;1.00;;;0.90;;
70388;SDS011;58659;49.050;8.530;2023-04-29T08:42:33;1.13;;;1.03;;
70388;SDS011;58659;49.050;8.530;2023-04-29T08:45:00;2.10;;;1.40;;
70388;SDS011;58659;49.050;8.530;2023-04-29T08:47:28;1.00;;;0.90;;
70388;SDS011;58659;49.050;8.530;2023-04-29T08:49:54;1.30;;;0.93;;
70388;SDS011;58659;49.050;8.530;2023-04-29T08:52:19;1.20;;;1.10;;
70388;SDS011;58659;49.050;8.530;2023-04-29T08:54:45;2.17;;;1.20;;
70388;SDS011;58659;49.050;8.530;2023-04-29T08:57:10;1.93;;;1.17;;
70388;SDS011;58659;49.050;8.530;2023-04-29T08:59:37;1.63;;;1.20;;
70388;SDS011;58659;49.050;8.530;2023-04-29T09:02:02;1.60;;;1.00;;
70388;SDS011;58659;49.050;8.530;2023-04-29T09:05:15;1.30;;;1.00;;
70388;SDS011;58659;49.050;8.530;2023-04-29T09:07:27;1.03;;;0.93;;
70388;SDS011;58659;49.050;8.530;2023-04-29T09:09:52;1.10;;;1.00;;
70388;SDS011;58659;49.050;8.530;2023-04-29T09:12:21;2.90;;;1.17;;
70388;SDS011;58659;49.050;8.530;2023-04-29T09:14:46;1.23;;;1.00;;
70388;SDS011;58659;49.050;8.530;2023-04-29T09:17:12;2.13;;;1.30;;
70388;SDS011;58659;49.050;8.530;2023-04-29T09:19:37;2.93;;;1.10;;
70388;SDS011;58659;49.050;8.530;2023-04-29T09:22:05;1.70;;;1.20;;
70388;SDS011;58659;49.050;8.530;2023-04-29T09:24:34;1.17;;;1.00;;
70388;SDS011;58659;49.050;8.530;2023-04-29T09:26:59;1.10;;;1.00;;
70388;SDS011;58659;49.050;8.530;2023-04-29T09:29:27;1.13;;;1.03;;
70388;SDS011;58659;49.050;8.530;2023-04-29T09:31:53;1.30;;;1.20;;
70388;SDS011;58659;49.050;8.530;2023-04-29T09:34:33;1.07;;;0.97;;
70388;SDS011;58659;49.050;8.530;2023-04-29T09:37:06;2.13;;;1.17;;
70388;SDS011;58659;49.050;8.530;2023-04-29T09:39:48;1.33;;;1.10;;
70388;SDS011;58659;49.050;8.530;2023-04-29T09:42:13;1.00;;;1.00;;
70388;SDS011;58659;49.050;8.530;2023-04-29T09:44:40;1.57;;;1.10;;
70388;SDS011;58659;49.050;8.530;2023-04-29T09:47:07;0.90;;;0.90;;
70388;SDS011;58659;49.050;8.530;2023-04-29T09:49:35;1.20;;;1.00;;
70388;SDS011;58659;49.050;8.530;2023-04-29T09:52:13;1.37;;;1.27;;
70388;SDS011;58659;49.050;8.530;2023-04-29T09:54:41;1.23;;;1.13;;
70388;SDS011;58659;49.050;8.530;2023-04-29T09:57:08;1.27;;;1.07;;
70388;SDS011;58659;49.050;8.530;2023-04-29T09:59:35;1.93;;;0.90;;
70388;SDS011;58659;49.050;8.530;2023-04-29T10:02:17;5.03;;;1.60;;
70388;SDS011;58659;49.050;8.530;2023-04-29T10:04:47;3.83;;;2.10;;
70388;SDS011;58659;49.050;8.530;2023-04-29T10:07:21;4.27;;;2.20;;
70388;SDS011;58659;49.050;8.530;2023-04-29T10:09:47;4.10;;;2.27;;
70388;SDS011;58659;49.050;8.530;2023-04-29T10:12:16;4.63;;;2.10;;
70388;SDS011;58659;49.050;8.530;2023-04-29T10:14:47;4.03;;;2.53;;
70388;SDS011;58659;49.050;8.530;2023-04-29T10:20:22;3.50;;;2.63;;
70388;SDS011;58659;49.050;8.530;2023-04-29T10:22:49;5.27;;;2.70;;
70388;SDS011;58659;49.050;8.530;2023-04-29T10:25:16;4.93;;;2.73;;
70388;SDS011;58659;49.050;8.530;2023-04-29T10:27:44;9.97;;;3.63;;
70388;SDS011;58659;49.050;8.530;2023-04-29T10:30:13;5.10;;;2.57;;
70388;SDS011;58659;49.050;8.530;2023-04-29T10:32:46;4.83;;;2.50;;
70388;SDS011;58659;49.050;8.530;2023-04-29T10:35:15;6.13;;;3.10;;
70388;SDS011;58659;49.050;8.530;2023-04-29T10:37:44;3.37;;;1.97;;
70388;SDS011;58659;49.050;8.530;2023-04-29T10:42:51;5.97;;;2.30;;
70388;SDS011;58659;49.050;8.530;2023-04-29T10:53:09;5.73;;;2.40;;
70388;SDS011;58659;49.050;8.530;2023-04-29T10:55:35;4.00;;;2.13;;
70388;SDS011;58659;49.050;8.530;2023-04-29T10:58:02;4.40;;;2.40;;
70388;SDS011;58659;49.050;8.530;2023-04-29T11:00:29;3.80;;;1.90;;
70388;SDS011;58659;49.050;8.530;2023-04-29T11:02:57;6.37;;;1.90;;
70388;SDS011;58659;49.050;8.530;2023-04-29T11:08:14;3.10;;;1.70;;
70388;SDS011;58659;49.050;8.530;2023-04-29T11:10:49;3.80;;;1.97;;
70388;SDS011;58659;49.050;8.530;2023-04-29T11:13:26;5.33;;;2.67;;
70388;SDS011;58659;49.050;8.530;2023-04-29T11:16:07;2.63;;;2.00;;
70388;SDS011;58659;49.050;8.530;2023-04-29T11:18:32;3.83;;;1.57;;
70388;SDS011;58659;49.050;8.530;2023-04-29T11:23:37;2.73;;;1.60;;
70388;SDS011;58659;49.050;8.530;2023-04-29T11:26:05;3.17;;;1.80;;
70388;SDS011;58659;49.050;8.530;2023-04-29T11:28:31;2.47;;;1.80;;
70388;SDS011;58659;49.050;8.530;2023-04-29T11:30:57;1.97;;;1.63;;
70388;SDS011;58659;49.050;8.530;2023-04-29T11:33:23;3.83;;;2.20;;
70388;SDS011;58659;49.050;8.530;2023-04-29T11:35:51;4.17;;;1.63;;
70388;SDS011;58659;49.050;8.530;2023-04-29T11:38:16;3.37;;;2.27;;
70388;SDS011;58659;49.050;8.530;2023-04-29T11:40:51;3.20;;;1.70;;
70388;SDS011;58659;49.050;8.530;2023-04-29T11:43:17;3.50;;;1.60;;
70388;SDS011;58659;49.050;8.530;2023-04-29T11:45:45;3.90;;;1.87;;
70388;SDS011;58659;49.050;8.530;2023-04-29T11:48:18;3.00;;;2.17;;
70388;SDS011;58659;49.050;8.530;2023-04-29T11:50:44;2.20;;;1.80;;
70388;SDS011;58659;49.050;8.530;2023-04-29T11:53:11;3.23;;;1.57;;
70388;SDS011;58659;49.050;8.530;2023-04-29T11:55:36;4.37;;;1.93;;
70388;SDS011;58659;49.050;8.530;2023-04-29T11:58:03;2.43;;;1.37;;
70388;SDS011;58659;49.050;8.530;2023-04-29T12:00:28;2.33;;;1.53;;
70388;SDS011;58659;49.050;8.530;2023-04-29T12:02:55;2.70;;;1.70;;
70388;SDS011;58659;49.050;8.530;2023-04-29T12:05:20;3.83;;;2.07;;
70388;SDS011;58659;49.050;8.530;2023-04-29T12:07:50;4.67;;;1.87;;
70388;SDS011;58659;49.050;8.530;2023-04-29T12:10:15;3.57;;;1.63;;
70388;SDS011;58659;49.050;8.530;2023-04-29T12:12:40;3.87;;;1.63;;
70388;SDS011;58659;49.050;8.530;2023-04-29T12:15:10;2.70;;;1.70;;
70388;SDS011;58659;49.050;8.530;2023-04-29T12:17:37;1.93;;;1.73;;
70388;SDS011;58659;49.050;8.530;2023-04-29T12:20:03;2.47;;;1.40;;
70388;SDS011;58659;49.050;8.530;2023-04-29T12:22:33;3.23;;;1.67;;
70388;SDS011;58659;49.050;8.530;2023-04-29T12:24:59;2.07;;;1.57;;
70388;SDS011;58659;49.050;8.530;2023-04-29T12:27:28;1.97;;;1.23;;
70388;SDS011;58659;49.050;8.530;2023-04-29T12:29:55;3.33;;;1.40;;
70388;SDS011;58659;49.050;8.530;2023-04-29T12:32:21;2.30;;;1.40;;
70388;SDS011;58659;49.050;8.530;2023-04-29T12:34:49;2.43;;;1.40;;
70388;SDS011;58659;49.050;8.530;2023-04-29T12:37:15;3.00;;;1.43;;
70388;SDS011;58659;49.050;8.530;2023-04-29T12:39:40;2.70;;;1.83;;
70388;SDS011;58659;49.050;8.530;2023-04-29T12:42:06;2.00;;;1.43;;
70388;SDS011;58659;49.050;8.530;2023-04-29T12:44:39;2.57;;;1.50;;
70388;SDS011;58659;49.050;8.530;2023-04-29T12:47:08;2.80;;;1.43;;
70388;SDS011;58659;49.050;8.530;2023-04-29T12:49:34;2.27;;;1.43;;
70388;SDS011;58659;49.050;8.530;2023-04-29T12:52:00;2.83;;;1.53;;
70388;SDS011;58659;49.050;8.530;2023-04-29T12:54:26;4.23;;;1.60;;
70388;SDS011;58659;49.050;8.530;2023-04-29T12:56:51;5.93;;;1.93;;
70388;SDS011;58659;49.050;8.530;2023-04-29T12:59:17;2.23;;;1.60;;
70388;SDS011;58659;49.050;8.530;2023-04-29T13:01:43;2.47;;;1.50;;
70388;SDS011;58659;49.050;8.530;2023-04-29T13:04:08;3.90;;;2.03;;
70388;SDS011;58659;49.050;8.530;2023-04-29T13:06:35;2.17;;;1.53;;
70388;SDS011;58659;49.050;8.530;2023-04-29T13:09:03;1.67;;;1.43;;
70388;SDS011;58659;49.050;8.530;2023-04-29T13:11:30;2.93;;;1.73;;
70388;SDS011;58659;49.050;8.530;2023-04-29T13:13:56;2.43;;;1.40;;
70388;SDS011;58659;49.050;8.530;2023-04-29T13:16:21;4.47;;;2.00;;
70388;SDS011;58659;49.050;8.530;2023-04-29T13:18:48;3.53;;;2.07;;
70388;SDS011;58659;49.050;8.530;2023-04-29T13:21:13;3.30;;;1.27;;
70388;SDS011;58659;49.050;8.530;2023-04-29T13:23:39;2.33;;;1.27;;
70388;SDS011;58659;49.050;8.530;2023-04-29T13:26:05;3.07;;;1.70;;
70388;SDS011;58659;49.050;8.530;2023-04-29T13:28:32;2.33;;;1.43;;
70388;SDS011;58659;49.050;8.530;2023-04-29T13:30:58;2.30;;;1.57;;
70388;SDS011;58659;49.050;8.530;2023-04-29T13:33:23;3.37;;;1.60;;
70388;SDS011;58659;49.050;8.530;2023-04-29T13:35:48;1.93;;;1.33;;
70388;SDS011;58659;49.050;8.530;2023-04-29T13:38:14;2.50;;;1.57;;
70388;SDS011;58659;49.050;8.530;2023-04-29T13:40:39;2.07;;;1.57;;
70388;SDS011;58659;49.050;8.530;2023-04-29T13:43:05;3.67;;;1.57;;
70388;SDS011;58659;49.050;8.530;2023-04-29T13:45:31;1.83;;;1.30;;
70388;SDS011;58659;49.050;8.530;2023-04-29T13:47:57;3.30;;;1.50;;
70388;SDS011;58659;49.050;8.530;2023-04-29T13:50:22;2.37;;;1.40;;
70388;SDS011;58659;49.050;8.530;2023-04-29T13:52:48;3.80;;;1.97;;
70388;SDS011;58659;49.050;8.530;2023-04-29T13:55:13;2.33;;;1.33;;
70388;SDS011;58659;49.050;8.530;2023-04-29T13:57:38;1.33;;;1.00;;
70388;SDS011;58659;49.050;8.530;2023-04-29T14:00:04;2.07;;;1.83;;
70388;SDS011;58659;49.050;8.530;2023-04-29T14:02:30;3.50;;;1.60;;
70388;SDS011;58659;49.050;8.530;2023-04-29T14:04:56;1.60;;;1.47;;
70388;SDS011;58659;49.050;8.530;2023-04-29T14:07:21;2.47;;;1.47;;
70388;SDS011;58659;49.050;8.530;2023-04-29T14:09:47;8.13;;;1.73;;
70388;SDS011;58659;49.050;8.530;2023-04-29T14:12:13;1.70;;;1.20;;
70388;SDS011;58659;49.050;8.530;2023-04-29T14:14:38;3.37;;;1.70;;
70388;SDS011;58659;49.050;8.530;2023-04-29T14:17:03;3.37;;;1.30;;
70388;SDS011;58659;49.050;8.530;2023-04-29T14:19:29;2.23;;;1.23;;
70388;SDS011;58659;49.050;8.530;2023-04-29T14:21:54;2.00;;;1.20;;
70388;SDS011;58659;49.050;8.530;2023-04-29T14:24:19;1.37;;;1.10;;
70388;SDS011;58659;49.050;8.530;2023-04-29T14:26:46;2.67;;;1.60;;
70388;SDS011;58659;49.050;8.530;2023-04-29T14:29:11;2.10;;;1.20;;
70388;SDS011;58659;49.050;8.530;2023-04-29T14:31:36;2.63;;;1.40;;
70388;SDS011;58659;49.050;8.530;2023-04-29T14:34:02;2.23;;;1.50;;
70388;SDS011;58659;49.050;8.530;2023-04-29T14:36:28;2.93;;;1.37;;
70388;SDS011;58659;49.050;8.530;2023-04-29T14:38:53;2.07;;;1.57;;
70388;SDS011;58659;49.050;8.530;2023-04-29T14:41:19;1.73;;;1.53;;
70388;SDS011;58659;49.050;8.530;2023-04-29T14:43:47;2.63;;;1.40;;
70388;SDS011;58659;49.050;8.530;2023-04-29T14:46:12;1.27;;;1.10;;
70388;SDS011;58659;49.050;8.530;2023-04-29T14:48:38;1.37;;;0.90;;
70388;SDS011;58659;49.050;8.530;2023-04-29T14:51:03;1.70;;;1.33;;
70388;SDS011;58659;49.050;8.530;2023-04-29T14:53:30;3.00;;;1.50;;
70388;SDS011;58659;49.050;8.530;2023-04-29T14:55:55;2.83;;;1.23;;
70388;SDS011;58659;49.050;8.530;2023-04-29T14:58:20;2.40;;;1.30;;
70388;SDS011;58659;49.050;8.530;2023-04-29T15:00:46;1.73;;;1.43;;
70388;SDS011;58659;49.050;8.530;2023-04-29T15:03:13;2.30;;;1.27;;
70388;SDS011;58659;49.050;8.530;2023-04-29T15:05:38;1.43;;;1.10;;
70388;SDS011;58659;49.050;8.530;2023-04-29T15:08:04;2.97;;;1.40;;
70388;SDS011;58659;49.050;8.530;2023-04-29T15:10:29;2.43;;;1.40;;
70388;SDS011;58659;49.050;8.530;2023-04-29T15:12:55;4.70;;;1.50;;
70388;SDS011;58659;49.050;8.530;2023-04-29T15:15:21;1.20;;;1.00;;
70388;SDS011;58659;49.050;8.530;2023-04-29T15:17:47;2.23;;;1.37;;
70388;SDS011;58659;49.050;8.530;2023-04-29T15:20:12;2.47;;;1.60;;